createdAt,value
2023-01-28T00:00:31.296Z,44.00
2023-01-28T00:01:33.177Z,45.73
2023-01-28T03:52:34.882Z,41.01
2023-01-28T03:53:38.504Z,38.41
2023-01-28T03:54:40.628Z,36.66
2023-01-28T03:55:47.222Z,39.95
2023-01-28T03:56:49.231Z,38.28
2023-01-28T03:57:51.110Z,36.81
2023-01-28T03:58:52.995Z,35.91
2023-01-28T03:59:54.977Z,34.75
2023-01-28T04:00:57.106Z,36.71
2023-01-28T04:02:00.233Z,38.47
2023-01-28T04:03:02.278Z,32.46
2023-01-28T04:04:04.312Z,34.14
2023-01-28T04:05:08.277Z,33.37
2023-01-28T04:06:10.946Z,34.84
2023-01-28T04:07:13.611Z,33.34
2023-01-28T04:08:15.487Z,36.06
2023-01-28T04:09:17.704Z,34.98
2023-01-28T04:10:20.097Z,32.73
2023-01-28T04:11:22.178Z,35.16
2023-01-28T04:12:24.613Z,33.05
2023-01-28T04:13:26.634Z,36.49
2023-01-28T04:14:29.029Z,37.17
2023-01-28T04:15:31.336Z,35.18
2023-01-28T04:16:33.417Z,30.45
2023-01-28T04:17:35.278Z,33.51
2023-01-28T04:18:37.571Z,35.17
2023-01-28T04:19:39.485Z,33.67
2023-01-28T04:20:41.978Z,35.57
2023-01-28T04:21:43.854Z,31.45
2023-01-28T04:22:45.728Z,33.37
2023-01-28T04:23:47.602Z,39.32
2023-01-28T04:24:49.540Z,32.23
2023-01-28T04:25:52.243Z,35.89
2023-01-28T04:26:56.211Z,32.51
2023-01-28T04:27:58.233Z,35.11
2023-01-28T04:29:01.374Z,38.45
2023-01-28T04:30:05.785Z,36.16
2023-01-28T04:31:08.002Z,35.06
2023-01-28T04:32:11.696Z,32.39
2023-01-28T04:33:14.043Z,33.73
2023-01-28T04:34:15.964Z,36.09
2023-01-28T04:35:20.372Z,36.65
2023-01-28T04:36:22.987Z,34.16
2023-01-28T04:37:24.887Z,37.73
2023-01-28T04:38:28.238Z,39.62
2023-01-28T04:39:30.180Z,35.72
2023-01-28T04:40:32.381Z,32.55
2023-01-28T04:41:35.555Z,33.63
2023-01-28T04:42:38.335Z,33.90
2023-01-28T04:43:40.464Z,34.54
2023-01-28T04:44:42.474Z,35.74
2023-01-28T04:45:44.790Z,34.91
2023-01-28T04:46:46.930Z,37.89
2023-01-28T04:47:51.079Z,35.77
2023-01-28T04:48:53.069Z,30.44
2023-01-28T04:49:55.127Z,33.15
2023-01-28T04:50:57.507Z,35.01
2023-01-28T04:51:59.717Z,34.39
2023-01-28T04:53:01.786Z,36.69
2023-01-28T04:54:05.955Z,34.47
2023-01-28T04:55:08.880Z,33.69
2023-01-28T04:56:11.377Z,37.79
2023-01-28T04:57:13.856Z,34.36
2023-01-28T04:58:15.880Z,36.23
2023-01-28T04:59:17.766Z,34.81
2023-01-28T05:00:20.313Z,35.45
2023-01-28T05:01:22.352Z,38.81
2023-01-28T05:02:24.432Z,36.45
2023-01-28T05:03:27.142Z,37.19
2023-01-28T05:04:29.028Z,35.59
2023-01-28T05:05:30.923Z,37.93
2023-01-28T05:06:33.198Z,35.33
2023-01-28T05:07:37.011Z,40.68
2023-01-28T05:08:39.035Z,37.42
2023-01-28T05:09:40.908Z,38.18
2023-01-28T05:10:43.198Z,37.38
2023-01-28T05:11:45.106Z,35.37
2023-01-28T05:12:49.292Z,33.87
2023-01-28T05:13:51.235Z,36.22
2023-01-28T05:14:53.109Z,35.01
2023-01-28T05:15:55.037Z,37.74
2023-01-28T05:16:58.024Z,36.39
2023-01-28T05:18:00.591Z,34.33
2023-01-28T05:19:03.577Z,34.15
2023-01-28T05:20:06.861Z,36.29
2023-01-28T05:21:09.030Z,37.73
2023-01-28T05:22:11.266Z,33.61
2023-01-28T05:23:13.383Z,31.63
2023-01-28T05:24:15.425Z,36.33
2023-01-28T05:25:17.772Z,33.29
2023-01-28T05:26:20.454Z,37.00
2023-01-28T05:27:22.957Z,35.55
2023-01-28T05:28:24.856Z,38.60
2023-01-28T05:29:26.736Z,34.99
2023-01-28T05:30:28.882Z,33.79
2023-01-28T05:31:30.899Z,37.21
2023-01-28T05:32:33.201Z,32.69
2023-01-28T05:33:35.183Z,32.14
2023-01-28T05:34:37.782Z,33.15
2023-01-28T05:35:39.786Z,34.40
2023-01-28T05:36:41.804Z,33.49
2023-01-28T05:37:43.881Z,35.67
2023-01-28T05:38:45.922Z,38.45
2023-01-28T05:39:47.805Z,37.07
2023-01-28T05:40:49.885Z,34.69
2023-01-28T05:41:51.954Z,36.71
2023-01-28T05:42:53.919Z,34.91
2023-01-28T05:43:55.796Z,32.43
2023-01-28T05:44:57.714Z,36.74
2023-01-28T05:46:00.286Z,35.55
2023-01-28T05:47:02.622Z,37.49
2023-01-28T05:48:04.883Z,38.50
2023-01-28T05:49:06.867Z,39.00
2023-01-28T05:50:13.573Z,35.92
2023-01-28T05:51:16.342Z,39.64
2023-01-28T05:52:18.343Z,38.30
2023-01-28T05:53:21.000Z,38.36
2023-01-28T05:54:22.945Z,41.72
2023-01-28T05:55:25.251Z,43.56
2023-01-28T05:56:27.547Z,40.37
2023-01-28T05:57:30.767Z,38.03
2023-01-28T05:58:33.325Z,43.40
2023-01-28T05:59:36.535Z,42.52
2023-01-28T06:00:38.600Z,39.47
2023-01-28T06:01:43.447Z,40.05
2023-01-28T06:02:45.884Z,43.03
2023-01-28T06:03:47.914Z,41.85
2023-01-28T06:04:49.940Z,43.11
2023-01-28T06:05:51.860Z,44.01
2023-01-28T06:06:53.959Z,42.60
2023-01-28T06:07:56.041Z,46.65
2023-01-28T06:08:58.067Z,47.25
2023-01-28T06:10:00.184Z,40.89
2023-01-28T06:11:02.213Z,42.19
2023-01-28T06:12:05.006Z,40.10
2023-01-28T06:13:07.090Z,46.04
2023-01-28T06:14:09.459Z,46.83
2023-01-28T06:15:13.172Z,44.68
2023-01-28T06:16:15.477Z,46.68
2023-01-28T06:17:17.835Z,48.15
2023-01-28T06:18:19.699Z,51.01
2023-01-28T06:19:21.591Z,44.43
2023-01-28T06:20:24.363Z,51.60
2023-01-28T06:21:28.388Z,46.50
2023-01-28T06:22:30.169Z,42.49
2023-01-28T06:23:33.295Z,46.64
2023-01-28T06:24:35.638Z,42.96
2023-01-28T06:25:37.507Z,41.21
2023-01-28T06:26:39.478Z,41.35
2023-01-28T06:27:41.361Z,41.51
2023-01-28T06:28:43.548Z,43.37
2023-01-28T06:29:45.464Z,39.29
2023-01-28T06:30:49.150Z,36.49
2023-01-28T06:31:51.547Z,42.31
2023-01-28T06:32:55.112Z,42.66
2023-01-28T06:33:57.032Z,38.39
2023-01-28T06:35:01.992Z,37.84
2023-01-28T06:36:05.470Z,37.61
2023-01-28T06:37:07.813Z,37.64
2023-01-28T06:38:10.991Z,44.25
2023-01-28T06:39:13.004Z,41.34
2023-01-28T06:40:15.742Z,38.27
2023-01-28T06:41:18.595Z,42.84
2023-01-28T06:42:20.855Z,42.81
2023-01-28T06:43:23.214Z,48.01
2023-01-28T06:44:25.333Z,40.50
2023-01-28T06:45:27.215Z,43.86
2023-01-28T06:46:29.277Z,45.52
2023-01-28T06:47:31.555Z,44.09
2023-01-28T06:48:33.571Z,45.21
2023-01-28T06:49:36.395Z,50.33
2023-01-28T06:50:38.440Z,51.32
2023-01-28T06:51:40.580Z,45.63
2023-01-28T06:52:42.588Z,44.27
2023-01-28T06:53:46.196Z,47.66
2023-01-28T06:54:48.523Z,49.78
2023-01-28T06:55:50.510Z,51.00
2023-01-28T06:56:52.629Z,48.38
2023-01-28T06:57:54.493Z,50.59
2023-01-28T06:58:56.478Z,54.29
2023-01-28T06:59:58.353Z,48.04
2023-01-28T07:01:00.483Z,47.31
2023-01-28T07:02:02.522Z,47.73
2023-01-28T07:03:05.081Z,46.64
2023-01-28T07:04:07.806Z,50.79
2023-01-28T07:05:10.506Z,47.69
2023-01-28T07:06:12.492Z,43.21
2023-01-28T07:07:14.524Z,47.29
2023-01-28T07:08:16.598Z,43.03
2023-01-28T07:09:18.705Z,46.35
2023-01-28T07:10:20.948Z,45.59
2023-01-28T07:11:22.957Z,44.85
2023-01-28T07:12:24.940Z,43.97
2023-01-28T07:13:27.926Z,47.47
2023-01-28T07:14:30.789Z,50.54
2023-01-28T07:15:32.772Z,43.63
2023-01-28T07:16:34.806Z,50.63
2023-01-28T07:17:41.954Z,43.75
2023-01-28T07:18:44.122Z,44.99
2023-01-28T07:19:46.217Z,41.56
2023-01-28T07:20:48.617Z,43.79
2023-01-28T07:21:50.542Z,45.84
2023-01-28T07:22:52.617Z,38.80
2023-01-28T07:23:54.627Z,40.03
2023-01-28T07:24:56.626Z,43.01
2023-01-28T07:26:05.109Z,39.79
2023-01-28T07:27:07.082Z,40.69
2023-01-28T07:28:09.885Z,42.12
2023-01-28T07:29:12.142Z,41.95
2023-01-28T07:30:16.299Z,43.61
2023-01-28T07:31:20.137Z,44.22
2023-01-28T07:32:22.377Z,41.94
2023-01-28T07:33:24.778Z,42.70
2023-01-28T07:34:27.679Z,41.99
2023-01-28T07:35:30.465Z,40.33
2023-01-28T07:36:32.670Z,39.11
2023-01-28T07:37:35.832Z,42.23
2023-01-28T07:38:37.716Z,41.17
2023-01-28T07:39:39.819Z,38.01
2023-01-28T07:40:42.048Z,37.67
2023-01-28T07:41:43.939Z,37.11
2023-01-28T07:42:46.343Z,38.08
2023-01-28T07:43:48.233Z,34.91
2023-01-28T07:44:50.240Z,38.78
2023-01-28T07:45:52.136Z,37.55
2023-01-28T07:46:54.407Z,34.74
2023-01-28T07:48:02.188Z,38.00
2023-01-28T12:09:42.308Z,31.88
2023-01-28T12:13:27.097Z,24.86
2023-01-28T12:14:39.503Z,27.62
2023-01-28T12:16:03.721Z,28.99
2023-01-28T12:17:13.016Z,26.51
2023-01-28T12:18:21.830Z,27.74
2023-01-28T12:19:42.298Z,26.82
2023-01-28T12:21:00.433Z,28.09
2023-01-28T12:22:21.550Z,28.92
2023-01-28T12:23:33.527Z,25.98
2023-01-28T12:24:48.512Z,24.69
2023-01-28T12:26:00.034Z,28.59
2023-01-28T12:27:21.036Z,27.55
2023-01-28T12:28:53.389Z,25.16
2023-01-28T12:30:20.575Z,25.73
2023-01-28T12:31:43.147Z,23.79
2023-01-28T12:33:06.834Z,24.31
2023-01-28T12:34:21.659Z,23.81
2023-01-28T12:35:39.358Z,25.25
2023-01-28T12:36:47.894Z,24.39
2023-01-28T12:38:03.055Z,23.15
2023-01-28T12:39:25.678Z,22.36
2023-01-28T12:40:33.636Z,20.91
2023-01-28T12:41:40.625Z,22.56
2023-01-28T12:42:46.526Z,25.19
2023-01-28T12:44:07.451Z,40.66
2023-01-28T12:45:22.698Z,26.55
2023-01-28T12:47:41.739Z,19.87
2023-01-28T12:48:47.420Z,28.54
2023-01-28T12:49:56.073Z,25.65
2023-01-28T12:51:17.327Z,23.99
2023-01-28T12:52:26.006Z,24.87
2023-01-28T12:53:31.762Z,24.23
2023-01-28T12:54:46.223Z,24.71
2023-01-28T12:55:51.996Z,22.94
2023-01-28T12:56:55.765Z,24.68
2023-01-28T12:57:58.758Z,22.42
2023-01-28T12:59:19.549Z,23.46
2023-01-28T13:00:28.283Z,25.26
2023-01-28T13:01:49.609Z,20.31
2023-01-28T13:02:58.744Z,24.44
2023-01-28T13:04:10.432Z,19.43
2023-01-28T13:05:19.173Z,26.63
2023-01-28T13:06:27.721Z,30.04
2023-01-28T13:07:39.772Z,55.88
2023-01-28T13:08:42.959Z,24.87
2023-01-28T13:09:51.405Z,20.99
2023-01-28T13:10:56.385Z,21.68
2023-01-28T13:12:00.290Z,18.99
2023-01-28T13:13:03.993Z,23.80
2023-01-28T13:14:07.117Z,19.38
2023-01-28T13:15:16.079Z,19.28
2023-01-28T13:16:21.244Z,18.44
2023-01-28T13:17:31.390Z,22.55
2023-01-28T13:18:43.087Z,29.35
2023-01-28T13:19:44.991Z,20.08
2023-01-28T13:20:50.245Z,22.26
2023-01-28T13:21:52.779Z,21.61
2023-01-28T13:23:05.290Z,31.93
2023-01-28T13:24:16.391Z,20.63
2023-01-28T13:25:24.568Z,19.29
2023-01-28T13:27:57.449Z,14.89
2023-01-28T13:29:18.549Z,15.51
2023-01-28T13:30:36.148Z,17.64
2023-01-28T13:31:41.906Z,15.32
2023-01-28T13:32:47.630Z,16.99
2023-01-28T13:33:56.572Z,18.00
2023-01-28T13:35:04.990Z,16.48
2023-01-28T13:36:20.947Z,17.34
2023-01-28T13:37:32.745Z,17.42
2023-01-28T13:38:35.373Z,23.31
2023-01-28T13:39:37.816Z,17.41
2023-01-28T13:40:41.744Z,17.60
2023-01-28T13:41:47.248Z,18.23
2023-01-28T13:43:04.185Z,16.05
2023-01-28T13:44:27.120Z,18.44
2023-01-28T13:45:30.459Z,15.02
2023-01-28T13:46:32.661Z,15.24
2023-01-28T13:47:37.348Z,15.23
2023-01-28T13:48:48.475Z,14.18
2023-01-28T13:50:00.216Z,14.89
2023-01-28T13:51:05.067Z,15.17
2023-01-28T13:52:13.700Z,16.48
2023-01-28T13:53:43.487Z,14.14
2023-01-28T13:56:02.536Z,16.26
2023-01-28T13:57:25.644Z,15.29
2023-01-28T13:58:53.921Z,13.77
2023-01-28T14:00:25.900Z,13.51
2023-01-28T14:01:48.280Z,14.17
2023-01-28T14:02:54.112Z,15.28
2023-01-28T14:04:22.714Z,15.03
2023-01-28T14:05:43.783Z,16.64
2023-01-28T14:07:04.916Z,14.87
2023-01-28T14:08:23.012Z,14.30
2023-01-28T14:09:38.041Z,16.25
2023-01-28T14:10:59.172Z,16.17
2023-01-28T14:12:16.989Z,13.98
2023-01-28T14:13:25.901Z,13.84
2023-01-28T14:14:52.691Z,13.34
2023-01-28T14:16:20.995Z,13.92
2023-01-28T14:17:43.538Z,13.65
2023-01-28T14:18:48.250Z,13.36
2023-01-28T14:19:53.080Z,16.93
2023-01-28T14:20:58.548Z,14.17
2023-01-28T14:22:09.001Z,14.03
2023-01-28T14:23:20.968Z,16.92
2023-01-28T14:24:24.024Z,14.29
2023-01-28T14:25:49.908Z,17.77
2023-01-28T14:26:58.810Z,12.57
2023-01-28T14:28:03.911Z,14.93
2023-01-28T14:29:27.957Z,15.86
2023-01-28T14:30:33.792Z,14.35
2023-01-28T14:31:37.847Z,14.66
2023-01-28T14:32:46.513Z,15.79
2023-01-28T14:33:48.724Z,13.58
2023-01-28T14:34:53.142Z,14.31
2023-01-28T14:35:56.357Z,13.52
2023-01-28T14:37:08.192Z,16.37
2023-01-28T14:38:13.971Z,14.77
2023-01-28T14:41:43.735Z,15.43
2023-01-28T14:42:49.020Z,14.83
2023-01-28T14:43:54.416Z,18.79
2023-01-28T14:45:06.185Z,14.83
2023-01-28T14:46:21.245Z,19.77
2023-01-28T14:47:45.507Z,19.81
2023-01-28T14:49:18.433Z,17.97
2023-01-28T14:50:27.255Z,19.42
2023-01-28T14:51:53.797Z,21.55
2023-01-28T14:53:14.750Z,22.46
2023-01-28T14:57:13.672Z,17.73
2023-01-28T14:58:22.672Z,18.26
2023-01-28T15:00:39.252Z,18.62
2023-01-28T15:01:45.358Z,22.16
2023-01-28T15:02:47.984Z,23.43
2023-01-28T15:03:50.484Z,25.08
2023-01-28T15:04:53.899Z,22.27
2023-01-28T15:08:24.727Z,24.87
2023-01-28T15:09:26.756Z,22.96
2023-01-28T15:10:35.747Z,28.67
2023-01-28T15:11:40.843Z,26.72
2023-01-28T15:12:56.623Z,24.42
2023-01-28T15:14:00.285Z,26.49
2023-01-28T15:15:18.167Z,30.57
2023-01-28T15:16:23.386Z,29.56
2023-01-28T15:17:27.531Z,30.72
2023-01-28T15:18:36.996Z,33.23
2023-01-28T15:19:40.100Z,45.34
2023-01-28T15:20:47.934Z,53.39
2023-01-28T15:21:53.715Z,65.74
2023-01-28T15:22:56.316Z,56.74
2023-01-28T15:24:00.284Z,55.24
2023-01-28T15:25:04.232Z,56.93
2023-01-28T15:26:21.620Z,60.72
2023-01-28T15:27:29.483Z,69.22
2023-01-28T15:28:34.492Z,65.90
2023-01-28T15:29:37.216Z,61.73
2023-01-28T15:30:43.191Z,66.81
2023-01-28T15:31:49.435Z,69.42
2023-01-28T15:33:03.801Z,70.98
2023-01-28T15:34:18.092Z,73.91
2023-01-28T15:35:20.016Z,69.42
2023-01-28T15:36:22.364Z,66.52
2023-01-28T15:37:24.918Z,70.40
2023-01-28T15:38:28.642Z,74.42
2023-01-28T15:39:30.647Z,69.81
2023-01-28T15:40:36.394Z,67.98
2023-01-28T15:41:40.885Z,71.49
2023-01-28T15:42:46.486Z,66.44
2023-01-28T15:43:51.524Z,66.93
2023-01-28T15:44:54.990Z,61.12
2023-01-28T15:45:59.631Z,57.71
2023-01-28T15:49:17.971Z,57.06
2023-01-28T15:50:22.678Z,61.41
2023-01-28T15:51:28.466Z,52.74
2023-01-28T15:52:37.006Z,54.43
2023-01-28T15:53:48.867Z,51.03
2023-01-28T15:54:51.930Z,49.32
2023-01-28T19:52:42.129Z,38.71
2023-01-28T19:53:44.975Z,38.73
2023-01-28T19:54:47.485Z,31.18
2023-01-28T19:55:52.073Z,36.79
2023-01-28T19:56:53.604Z,31.15
2023-01-28T19:57:56.059Z,35.96
2023-01-28T19:58:57.960Z,28.69
2023-01-28T19:59:59.971Z,26.12
2023-01-28T20:02:18.693Z,30.89
2023-01-28T20:03:20.671Z,28.93
2023-01-28T20:04:22.569Z,31.11
2023-01-28T20:05:25.982Z,25.91
2023-01-28T20:06:30.305Z,27.30
2023-01-28T20:07:32.339Z,30.88
2023-01-28T20:08:34.220Z,27.80
2023-01-28T20:09:36.088Z,29.81
2023-01-28T20:10:38.100Z,24.06
2023-01-28T20:11:40.109Z,31.87
2023-01-28T20:12:42.175Z,28.48
2023-01-28T20:13:45.658Z,26.23
2023-01-28T20:14:47.663Z,30.63
2023-01-28T20:15:49.552Z,27.05
2023-01-28T20:16:51.614Z,25.47
2023-01-28T20:17:53.621Z,27.60
2023-01-28T20:18:58.409Z,31.49
2023-01-28T20:20:00.302Z,31.04
2023-01-28T20:21:02.616Z,31.76
2023-01-28T20:22:04.644Z,27.75
2023-01-28T20:23:06.699Z,33.75
2023-01-28T20:24:14.081Z,34.75
2023-01-28T20:25:16.549Z,38.76
2023-01-28T20:26:21.887Z,40.98
2023-01-28T20:27:24.494Z,39.95
2023-01-28T20:28:27.377Z,39.00
2023-01-28T20:29:29.287Z,33.14
2023-01-28T20:30:31.323Z,35.53
2023-01-28T20:31:33.477Z,27.94
2023-01-28T20:32:35.715Z,28.73
2023-01-28T20:33:38.952Z,34.53
2023-01-28T20:34:40.831Z,31.27
2023-01-28T20:35:43.939Z,26.71
2023-01-28T20:36:46.451Z,30.27
2023-01-28T20:37:48.438Z,25.47
2023-01-28T20:38:50.998Z,30.59
2023-01-28T20:39:53.037Z,30.09
2023-01-28T20:40:55.491Z,26.73
2023-01-28T20:41:57.384Z,27.31
2023-01-28T20:42:59.258Z,27.69
2023-01-28T20:44:01.851Z,26.97
2023-01-28T20:45:04.962Z,25.33
2023-01-28T20:46:19.356Z,28.26
2023-01-28T20:47:21.357Z,24.72
2023-01-28T20:48:23.327Z,27.18
2023-01-28T20:49:28.160Z,28.05
2023-01-28T20:50:30.468Z,25.41
2023-01-28T20:51:35.839Z,24.32
2023-01-28T20:52:38.227Z,28.79
2023-01-28T20:53:41.265Z,30.38
2023-01-28T20:54:43.159Z,28.25
2023-01-28T20:55:56.657Z,26.19
2023-01-28T20:56:58.815Z,28.17
2023-01-28T20:58:00.676Z,23.15
2023-01-28T20:59:05.307Z,28.51
2023-01-28T21:00:10.083Z,27.33
2023-01-28T21:03:31.402Z,26.57
2023-01-28T21:04:33.475Z,29.64
2023-01-28T21:05:35.370Z,31.85
2023-01-28T21:06:38.911Z,36.21
2023-01-28T21:07:41.673Z,29.27
2023-01-28T21:08:45.617Z,27.29
2023-01-28T21:09:47.543Z,27.35
2023-01-28T21:10:49.644Z,35.59
2023-01-28T21:11:51.632Z,27.03
2023-01-28T21:12:53.507Z,26.33
2023-01-28T21:13:55.794Z,34.55
2023-01-28T21:14:58.045Z,32.82
2023-01-28T21:16:00.771Z,29.79
2023-01-28T21:17:02.834Z,33.19
2023-01-28T21:18:06.418Z,29.23
2023-01-28T21:19:08.342Z,30.11
2023-01-28T21:20:13.014Z,28.73
2023-01-28T21:21:20.979Z,33.08
2023-01-28T21:22:23.252Z,27.31
2023-01-28T21:23:26.015Z,30.38
2023-01-28T21:24:28.211Z,30.95
2023-01-28T21:25:31.940Z,31.57
2023-01-28T21:26:33.946Z,34.61
2023-01-28T21:27:35.871Z,33.53
2023-01-28T21:28:37.952Z,30.27
2023-01-28T21:29:40.387Z,30.53
2023-01-28T21:30:42.673Z,26.57
2023-01-28T21:31:47.231Z,24.30
2023-01-28T21:32:49.377Z,27.16
2023-01-28T21:33:53.441Z,26.05
2023-01-28T21:34:55.459Z,26.58
2023-01-28T21:35:57.851Z,27.71
2023-01-28T21:36:59.871Z,26.87
2023-01-28T21:38:01.759Z,28.38
2023-01-28T21:39:04.739Z,27.46
2023-01-28T21:40:08.679Z,28.13
2023-01-28T21:41:10.937Z,28.16
2023-01-28T21:42:12.945Z,32.66
2023-01-28T21:43:14.859Z,25.29
2023-01-28T21:44:16.846Z,25.13
2023-01-28T21:45:18.814Z,24.32
2023-01-28T21:46:22.301Z,30.91
2023-01-28T21:47:25.513Z,32.87
2023-01-28T21:48:27.879Z,30.81
2023-01-28T21:49:29.881Z,31.36
2023-01-28T21:50:32.047Z,32.65
2023-01-28T21:51:35.592Z,39.07
2023-01-28T21:52:37.866Z,35.46
2023-01-28T21:53:41.608Z,36.49
2023-01-28T21:54:43.759Z,44.90
2023-01-28T21:55:47.734Z,35.72
2023-01-28T21:56:50.706Z,37.05
2023-01-28T21:57:52.687Z,35.96
2023-01-28T21:58:54.584Z,37.20
2023-01-28T21:59:56.499Z,34.23
2023-01-28T22:00:58.486Z,34.63
2023-01-28T22:02:06.550Z,34.79
2023-01-28T22:03:08.666Z,34.12
2023-01-28T22:04:11.811Z,30.23
2023-01-28T22:05:13.992Z,35.59
2023-01-28T22:06:16.331Z,32.97
2023-01-28T22:07:19.189Z,32.47
2023-01-28T22:08:21.715Z,32.04
2023-01-28T22:09:24.291Z,29.56
2023-01-28T22:10:26.272Z,27.81
2023-01-28T22:11:28.497Z,30.92
2023-01-28T22:12:30.381Z,29.47
2023-01-28T22:13:33.004Z,29.25
2023-01-28T22:14:36.753Z,29.37
2023-01-28T22:15:38.904Z,30.58
2023-01-28T22:16:41.516Z,33.83
2023-01-28T22:17:43.461Z,32.22
2023-01-28T22:18:45.483Z,30.61
2023-01-28T22:19:47.387Z,27.46
2023-01-28T22:21:06.150Z,26.27
2023-01-28T22:22:08.258Z,27.16
2023-01-28T22:23:10.231Z,26.83
2023-01-28T22:24:16.013Z,26.70
2023-01-28T22:25:18.101Z,28.52
2023-01-28T22:26:20.217Z,26.33
2023-01-28T22:27:22.091Z,25.37
2023-01-28T22:28:25.554Z,24.17
2023-01-28T22:29:27.471Z,27.91
2023-01-28T22:30:29.894Z,28.51
2023-01-28T22:31:32.922Z,24.83
2023-01-28T22:32:36.015Z,24.14
2023-01-28T22:33:38.530Z,25.57
2023-01-28T22:34:40.447Z,23.89
2023-01-28T22:35:42.750Z,24.67
2023-01-28T22:36:45.985Z,25.02
2023-01-28T22:37:47.874Z,22.65
2023-01-28T22:38:50.044Z,22.18
2023-01-28T22:39:53.425Z,25.39
2023-01-28T22:41:04.724Z,26.56
2023-01-28T22:42:06.654Z,25.27
2023-01-28T22:43:08.539Z,23.32
2023-01-28T22:44:10.752Z,25.11
2023-01-28T22:45:12.935Z,31.59
2023-01-28T22:46:15.647Z,27.19
2023-01-28T22:47:17.690Z,27.41
2023-01-28T22:48:19.692Z,26.10
2023-01-28T22:49:21.693Z,23.93
2023-01-28T22:50:23.882Z,23.95
2023-01-28T22:51:28.448Z,26.44
2023-01-28T22:52:30.350Z,23.90
2023-01-28T22:53:34.852Z,24.63
2023-01-28T22:54:36.790Z,23.55
2023-01-28T22:55:38.710Z,21.89
2023-01-28T22:56:41.308Z,20.11
2023-01-28T22:57:43.193Z,22.12
2023-01-28T22:58:45.462Z,24.17
2023-01-28T22:59:59.540Z,22.49
2023-01-28T23:00:51.769Z,24.97
2023-01-28T23:01:53.720Z,24.09
2023-01-28T23:02:55.813Z,22.64
2023-01-28T23:03:58.515Z,25.64
2023-01-28T23:05:00.384Z,22.79
2023-01-28T23:06:04.163Z,24.51
2023-01-28T23:07:06.075Z,24.14
2023-01-28T23:08:09.359Z,24.19
2023-01-28T23:09:11.295Z,26.61
2023-01-28T23:10:13.943Z,25.92
2023-01-28T23:11:16.815Z,26.63
2023-01-28T23:12:18.912Z,31.03
2023-01-28T23:13:21.892Z,33.37
2023-01-28T23:14:23.778Z,39.79
2023-01-28T23:15:25.644Z,44.07
2023-01-28T23:16:29.137Z,42.49
2023-01-28T23:17:31.136Z,43.88
2023-01-28T23:18:34.187Z,43.59
2023-01-28T23:19:36.662Z,50.33
2023-01-28T23:20:39.880Z,49.50
2023-01-28T23:21:41.878Z,52.08
2023-01-28T23:22:44.142Z,42.12
2023-01-28T23:23:46.411Z,39.74
2023-01-28T23:24:48.821Z,36.26
2023-01-28T23:25:50.846Z,39.86
2023-01-28T23:26:55.958Z,30.45
2023-01-28T23:27:58.184Z,30.37
2023-01-28T23:29:00.099Z,33.65
2023-01-28T23:30:03.667Z,28.55
2023-01-28T23:31:05.992Z,27.13
2023-01-28T23:32:09.726Z,31.35
2023-01-28T23:33:13.398Z,29.36
2023-01-28T23:34:16.417Z,27.80
2023-01-28T23:35:19.763Z,27.06
2023-01-28T23:36:21.876Z,26.30
2023-01-28T23:37:23.768Z,28.16
2023-01-28T23:38:25.653Z,26.03
2023-01-28T23:39:27.990Z,27.67
2023-01-28T23:40:30.079Z,26.68
2023-01-28T23:41:31.950Z,27.16
2023-01-28T23:42:34.355Z,26.60
2023-01-28T23:43:36.494Z,25.39
2023-01-28T23:44:38.487Z,26.05
2023-01-28T23:45:41.027Z,27.67
2023-01-28T23:46:43.145Z,27.48
2023-01-28T23:47:45.341Z,25.38
2023-01-28T23:48:48.047Z,26.97
2023-01-28T23:49:50.067Z,34.45
2023-01-28T23:50:55.433Z,30.51
2023-01-28T23:51:57.591Z,28.46
